Time;durP1;ratioP1;P1;durP2;ratioP2;P2;SDS_P1;SDS_P2;PMS_P1;PMS_P2;Temp;Humidity;BMP_temperature;BMP_pressure;BME280_temperature;BME280_humidity;BME280_pressure;Samples;Min_cycle;Max_cycle;Signal;HPM_P1;HPM_P2
2022/08/01 00:01:18;;;;;;;10.20;9.30;;;;;;;30.24;71.56;100595.63;4948676;28;69888;-29
2022/08/01 00:03:53;;;;;;;9.25;8.35;;;;;;;30.35;71.50;100607.59;5017023;28;43652;-28
2022/08/01 00:06:24;;;;;;;8.38;7.63;;;;;;;30.31;71.86;100600.13;4952891;28;69787;-28
2022/08/01 00:08:56;;;;;;;15.48;6.60;;;;;;;30.38;73.04;100607.13;4951877;28;64761;-29
2022/08/01 00:11:27;;;;;;;10.25;7.13;;;;;;;30.38;72.96;100611.72;5013315;28;70393;-29
2022/08/01 00:13:59;;;;;;;7.97;6.13;;;;;;;30.41;73.73;100611.28;4950267;28;66031;-29
2022/08/01 00:16:30;;;;;;;8.88;6.70;;;;;;;30.44;73.45;100600.00;5014040;28;69628;-31
2022/08/01 00:19:03;;;;;;;10.25;6.63;;;;;;;30.48;73.52;100602.06;4951458;28;65835;-29
2022/08/01 00:21:34;;;;;;;7.63;6.97;;;;;;;30.48;74.69;100603.94;4959928;28;69503;-29
2022/08/01 00:24:06;;;;;;;8.73;7.28;;;;;;;30.45;74.45;100594.38;4950164;28;65288;-30
2022/08/01 00:26:44;;;;;;;10.00;7.57;;;;;;;30.52;75.80;100602.41;5022501;28;70311;-29
2022/08/01 00:29:16;;;;;;;7.90;7.10;;;;;;;30.60;74.48;100607.53;4948615;28;65391;-29
2022/08/01 00:32:07;;;;;;;7.03;6.43;;;;;;;30.67;74.07;100600.19;4951463;28;69216;-30
2022/08/01 00:34:39;;;;;;;8.82;6.57;;;;;;;30.56;73.95;100581.94;4954607;28;64768;-29
2022/08/01 00:37:10;;;;;;;7.53;6.85;;;;;;;30.79;74.27;100602.97;4952985;28;68954;-28
2022/08/01 00:39:45;;;;;;;8.02;5.57;;;;;;;30.90;71.00;100617.66;4955480;28;66257;-31
2022/08/01 00:42:16;;;;;;;5.82;5.30;;;;;;;30.97;70.30;100610.25;4959168;28;69802;-31
2022/08/01 00:44:48;;;;;;;5.25;4.85;;;;;;;30.96;69.24;100611.31;4952892;28;66214;-31
2022/08/01 00:47:19;;;;;;;5.75;5.20;;;;;;;31.12;68.56;100618.84;5017454;28;69901;-31
2022/08/01 00:49:51;;;;;;;;;;;;;;;30.87;69.88;100628.91;4954130;28;65322;-32
2022/08/01 00:52:22;;;;;;;4.57;4.18;;;;;;;31.22;68.19;100639.13;4955931;28;69771;-31
2022/08/01 00:54:54;;;;;;;7.05;4.90;;;;;;;31.22;68.20;100628.28;4953725;28;66028;-30
2022/08/01 00:57:25;;;;;;;5.70;5.18;;;;;;;31.28;68.32;100632.78;4964059;28;68385;-31
2022/08/01 01:00:18;;;;;;;8.70;4.87;;;;;;;31.38;67.86;100638.53;4961153;28;66424;-32
2022/08/01 01:02:56;;;;;;;4.93;4.50;;;;;;;31.42;67.27;100645.13;4956992;28;70369;-31
2022/08/01 01:05:28;;;;;;;4.82;4.38;;;;;;;31.46;67.20;100646.34;4956132;28;66099;-32
2022/08/01 01:08:19;;;;;;;7.50;4.70;;;;;;;31.03;67.34;100559.75;4953659;28;69562;-31
2022/08/01 01:11:01;;;;;;;6.72;4.70;;;;;;;31.53;66.86;100641.63;4953295;28;67080;-30
2022/08/01 01:13:42;;;;;;;;;;;;;;;31.22;68.18;100628.28;4952348;28;69774;-30
2022/08/01 01:16:22;;;;;;;4.38;4.07;;;;;;;31.36;67.05;100584.53;4954596;28;66675;-31
2022/08/01 01:19:03;;;;;;;5.40;4.95;;;;;;;31.56;66.45;100597.78;4957341;28;69555;-31
2022/08/01 01:21:43;;;;;;;4.97;4.55;;;;;;;31.62;66.29;100601.47;4952790;28;65972;-30
2022/08/01 01:24:21;;;;;;;4.47;4.07;;;;;;;31.67;66.46;100598.06;4958076;28;70552;-31
2022/08/01 01:27:33;;;;;;;5.80;4.22;;;;;;;31.61;66.41;100589.78;4952268;28;66210;-33
2022/08/01 01:30:05;;;;;;;7.78;4.10;;;;;;;31.53;65.60;100557.59;4959596;28;69379;-31
2022/08/01 01:32:43;;;;;;;4.38;4.07;;;;;;;31.77;65.67;100582.88;4967439;28;66241;-31
2022/08/01 01:35:27;;;;;;;5.47;4.07;;;;;;;31.49;65.46;100532.03;4958957;28;70790;-30
2022/08/01 01:38:07;;;;;;;4.53;4.13;;;;;;;31.38;65.19;100513.84;4955767;28;64720;-30
2022/08/01 01:40:41;;;;;;;4.80;4.13;;;;;;;31.86;64.83;100598.81;4958999;28;70652;-32
2022/08/01 01:43:14;;;;;;;6.60;4.30;;;;;;;31.88;64.90;100583.97;4956771;28;65588;-30
2022/08/01 01:45:48;;;;;;;6.03;4.55;;;;;;;31.48;64.37;100519.53;4958545;28;70333;-30
2022/08/01 01:48:23;;;;;;;5.00;4.57;;;;;;;31.93;64.64;100594.13;4957823;28;66336;-30
2022/08/01 01:50:56;;;;;;;5.22;3.80;;;;;;;31.92;64.38;100579.72;4956735;28;69413;-32
2022/08/01 01:53:32;;;;;;;5.45;3.80;;;;;;;31.92;64.19;100577.03;4950062;28;66043;-31
2022/08/01 01:56:04;;;;;;;5.20;4.57;;;;;;;31.97;64.08;100577.16;4950408;28;70007;-30
2022/08/01 01:58:39;;;;;;;8.05;4.50;;;;;;;32.00;64.26;100587.53;4956502;28;65787;-30
2022/08/01 02:01:12;;;;;;;8.02;4.65;;;;;;;32.03;63.79;100587.03;5019616;28;69764;-31
2022/08/01 02:04:04;;;;;;;5.60;4.93;;;;;;;32.04;63.79;100579.75;4956568;28;65965;-30
2022/08/01 02:06:37;;;;;;;;;;;;;;;31.72;65.29;100590.88;4953253;28;70473;-31
2022/08/01 02:09:10;;;;;;;4.97;4.35;;;;;;;31.61;63.80;100519.28;4952532;28;67197;-30
2022/08/01 02:11:44;;;;;;;6.43;4.53;;;;;;;31.60;63.42;100506.81;4955274;28;70798;-30
2022/08/01 02:14:37;;;;;;;7.78;4.85;;;;;;;32.01;63.57;100567.50;4952030;28;65898;-31
2022/08/01 02:17:15;;;;;;;5.38;4.65;;;;;;;32.17;63.21;100589.53;4957738;28;70443;-31
2022/08/01 02:19:48;;;;;;;7.43;4.32;;;;;;;32.19;62.75;100590.13;4964488;28;66570;-32
2022/08/01 02:23:00;;;;;;;5.00;3.90;;;;;;;32.10;63.02;100592.38;4956063;28;70154;-29
2022/08/01 02:25:49;;;;;;;;;;;;;;;31.87;63.61;100598.56;4951061;28;65646;-31
2022/08/01 02:28:59;;;;;;;4.85;4.28;;;;;;;31.79;62.98;100545.50;5039801;28;69889;-30
2022/08/01 02:31:35;;;;;;;5.05;4.40;;;;;;;32.23;62.63;100580.44;4965534;28;66396;-31
2022/08/01 02:34:10;;;;;;;5.18;4.68;;;;;;;32.32;62.59;100589.03;4950079;28;70153;-31
2022/08/01 02:36:44;;;;;;;4.95;4.45;;;;;;;32.31;62.25;100585.50;5018142;28;64502;-29
2022/08/01 02:39:19;;;;;;;10.90;4.63;;;;;;;32.00;62.38;100533.25;4966266;28;70170;-31
2022/08/01 02:41:57;;;;;;;6.60;4.55;;;;;;;32.37;62.14;100581.03;4968201;28;65471;-30
2022/08/01 02:44:35;;;;;;;5.95;4.68;;;;;;;32.39;62.60;100579.72;4953439;28;69415;-31
2022/08/01 02:47:07;;;;;;;4.57;4.18;;;;;;;32.42;62.35;100579.25;4972857;28;66572;-32
2022/08/01 02:49:45;;;;;;;4.97;4.57;;;;;;;32.39;61.74;100579.72;4955405;28;70321;-31
2022/08/01 02:52:25;;;;;;;6.10;4.45;;;;;;;32.10;61.89;100515.59;4956421;28;66845;-31
2022/08/01 02:54:58;;;;;;;4.88;4.40;;;;;;;32.49;62.03;100585.41;4956126;28;69888;-29
2022/08/01 02:57:32;;;;;;;10.43;4.22;;;;;;;31.77;61.69;100462.72;4959339;28;65175;-31
2022/08/01 03:00:21;;;;;;;5.75;4.30;;;;;;;32.57;61.83;100591.53;4952989;28;69988;-31
2022/08/01 03:02:56;;;;;;;6.40;4.07;;;;;;;32.60;61.62;100591.09;4953075;28;65737;-32
2022/08/01 03:05:28;;;;;;;5.15;4.32;;;;;;;32.62;61.48;100584.31;5022441;28;70480;-30
2022/08/01 03:08:01;;;;;;;8.70;4.65;;;;;;;32.21;61.50;100514.75;4956972;28;66821;-32
2022/08/01 03:10:36;;;;;;;5.15;4.43;;;;;;;32.70;61.56;100588.56;4949328;28;70147;-31
2022/08/01 03:13:10;;;;;;;6.45;4.40;;;;;;;32.71;61.58;100598.38;4959550;28;65938;-31
2022/08/01 03:15:43;;;;;;;6.07;4.22;;;;;;;32.73;61.75;100585.34;4948815;28;70528;-31
2022/08/01 03:18:17;;;;;;;6.07;4.75;;;;;;;32.74;61.00;100592.47;4954494;28;66441;-31
2022/08/01 03:20:50;;;;;;;4.13;3.75;;;;;;;32.38;61.25;100526.50;4953796;28;70539;-30
2022/08/01 03:23:24;;;;;;;5.43;4.38;;;;;;;32.40;61.27;100516.25;4957036;28;65760;-32
2022/08/01 03:26:07;;;;;;;5.88;4.40;;;;;;;32.83;60.96;100579.31;4958165;28;69806;-31
2022/08/01 03:28:42;;;;;;;9.25;4.28;;;;;;;32.76;60.85;100562.31;4951745;28;66113;-30
2022/08/01 03:31:15;;;;;;;5.85;3.97;;;;;;;32.70;60.82;100553.25;4953127;28;70160;-30
2022/08/01 03:33:46;;;;;;;4.40;4.00;;;;;;;32.80;60.75;100558.91;5019484;28;66642;-31
2022/08/01 03:36:24;;;;;;;8.52;3.90;;;;;;;32.51;60.91;100511.03;4956776;28;70605;-30
2022/08/01 03:39:01;;;;;;;9.48;4.30;;;;;;;32.53;60.70;100508.91;4945689;28;65978;-30
2022/08/01 03:41:41;;;;;;;7.53;3.70;;;;;;;32.62;60.53;100530.00;4950050;28;70246;-32
2022/08/01 03:44:20;;;;;;;5.70;4.03;;;;;;;32.60;60.35;100521.28;4949313;28;66164;-31
2022/08/01 03:47:05;;;;;;;6.32;4.28;;;;;;;32.88;60.15;100572.09;4951290;28;69368;-30
2022/08/01 03:49:43;;;;;;;9.05;4.47;;;;;;;33.06;60.42;100583.88;4947600;28;66730;-32
2022/08/01 03:52:15;;;;;;;5.05;3.25;;;;;;;33.07;60.39;100580.94;4948667;28;69984;-32
2022/08/01 03:54:49;;;;;;;7.10;3.80;;;;;;;32.60;60.44;100498.75;4954700;28;66264;-30
2022/08/01 03:57:22;;;;;;;9.85;4.07;;;;;;;33.10;60.28;100579.63;4953863;28;69589;-30
2022/08/01 04:00:08;;;;;;;7.88;4.28;;;;;;;33.12;60.33;100577.47;4951461;28;65965;-30
2022/08/01 04:02:43;;;;;;;7.72;3.58;;;;;;;33.14;60.36;100580.78;4954125;28;70323;-31
2022/08/01 04:05:16;;;;;;;10.48;3.42;;;;;;;33.17;60.39;100577.56;4958780;28;66482;-31
2022/08/01 04:07:55;;;;;;;6.20;3.60;;;;;;;32.82;60.07;100518.75;5029350;28;70381;-31
2022/08/01 04:10:27;;;;;;;8.75;3.47;;;;;;;33.17;60.08;100577.56;4957535;28;66616;-31
2022/08/01 04:12:59;;;;;;;14.25;3.45;;;;;;;33.17;60.35;100574.84;4960025;28;69891;-30
2022/08/01 04:15:29;;;;;;;;;;;;;;;32.84;60.92;100565.47;4957198;28;65906;-32
2022/08/01 04:18:01;;;;;;;8.50;3.42;;;;;;;33.16;60.51;100556.91;4953409;28;69837;-30
2022/08/01 04:20:32;;;;;;;3.95;3.47;;;;;;;33.18;60.44;100560.19;4953662;28;66195;-31
2022/08/01 04:23:05;;;;;;;6.45;3.00;;;;;;;33.08;60.04;100539.09;5018279;28;69230;-31
2022/08/01 04:25:39;;;;;;;;;;;;;;;32.87;60.71;100559.56;4955249;28;66450;-30
2022/08/01 04:28:16;;;;;;;7.68;3.33;;;;;;;33.19;59.84;100556.41;4957584;28;70211;-31
2022/08/01 04:30:50;;;;;;;4.68;3.55;;;;;;;33.02;59.96;100512.06;4955548;28;65997;-32
2022/08/01 04:33:23;;;;;;;7.93;4.07;;;;;;;32.79;60.10;100470.34;4944635;28;69303;-31
2022/08/01 04:35:57;;;;;;;8.60;3.88;;;;;;;33.01;60.32;100502.25;4954411;28;66603;-31
2022/08/01 04:38:36;;;;;;;5.13;3.70;;;;;;;33.04;59.97;100504.47;4950663;28;69616;-31
2022/08/01 04:41:11;;;;;;;8.35;3.80;;;;;;;33.30;60.19;100536.50;4945025;28;66393;-31
2022/08/01 04:43:43;;;;;;;5.38;3.47;;;;;;;33.31;59.91;100537.31;4957873;28;70794;-31
2022/08/01 04:46:14;;;;;;;;;;;;;;;32.98;60.76;100538.03;4959460;28;65494;-30
2022/08/01 04:48:46;;;;;;;7.07;3.40;;;;;;;33.20;60.02;100516.47;4979334;28;69121;-31
2022/08/01 04:51:21;;;;;;;6.00;3.53;;;;;;;33.32;60.10;100523.50;4969730;28;65923;-30
2022/08/01 04:53:53;;;;;;;4.55;3.47;;;;;;;33.03;60.15;100464.81;4957212;28;69690;-31
2022/08/01 04:56:25;;;;;;;3.70;3.40;;;;;;;33.32;59.76;100517.22;4953162;28;66374;-30
2022/08/01 05:01:51;;;;;;;9.50;3.63;;;;;;;33.31;59.65;100505.50;4956165;28;66913;-31
2022/08/01 05:04:23;;;;;;;10.13;3.60;;;;;;;33.35;59.97;100505.88;4957340;28;69542;-31
2022/08/01 05:06:54;;;;;;;3.38;2.92;;;;;;;33.35;59.93;100501.25;4953055;28;66005;-31
2022/08/01 05:09:26;;;;;;;7.70;3.25;;;;;;;33.36;59.86;100480.31;4957472;28;70213;-31
2022/08/01 05:12:01;;;;;;;3.13;2.83;;;;;;;33.35;59.82;100468.63;4958463;28;65427;-30
2022/08/01 05:14:34;;;;;;;3.38;3.08;;;;;;;33.41;59.88;100469.53;4963467;28;69634;-31
2022/08/01 05:17:07;;;;;;;3.35;2.60;;;;;;;32.63;59.71;100330.72;4957419;28;66664;-31
2022/08/01 05:19:40;;;;;;;6.22;2.65;;;;;;;33.01;59.73;100386.25;4957693;28;70257;-31
2022/08/01 05:22:12;;;;;;;6.20;2.97;;;;;;;33.48;59.78;100447.59;4950994;28;66175;-30
2022/08/01 05:24:43;;;;;;;5.75;2.95;;;;;;;33.47;59.55;100440.53;4949224;28;70189;-30
2022/08/01 05:27:17;;;;;;;2.95;2.30;;;;;;;33.39;59.77;100422.72;4956555;28;65731;-30
2022/08/01 05:29:50;;;;;;;3.67;2.60;;;;;;;33.50;59.69;100435.41;4957145;28;69676;-31
2022/08/01 05:32:22;;;;;;;3.13;2.20;;;;;;;33.50;59.42;100426.44;5021653;28;66572;-30
2022/08/01 05:34:54;;;;;;;5.88;2.92;;;;;;;33.51;59.92;100419.91;4954591;28;70119;-31
2022/08/01 05:37:25;;;;;;;2.92;2.60;;;;;;;33.56;59.28;100417.28;4959052;28;65235;-31
2022/08/01 05:39:57;;;;;;;4.43;2.70;;;;;;;33.58;59.58;100412.44;5021589;28;70406;-31
2022/08/01 05:42:28;;;;;;;3.03;2.40;;;;;;;33.56;59.66;100396.34;4952775;28;65358;-31
2022/08/01 05:45:00;;;;;;;2.65;2.45;;;;;;;33.61;59.30;100406.50;4944826;28;69922;-30
2022/08/01 05:47:31;;;;;;;5.32;2.50;;;;;;;33.54;59.68;100390.38;4961284;28;65569;-32
2022/08/01 05:50:03;;;;;;;8.88;2.42;;;;;;;33.65;59.67;100395.94;5030897;28;69769;-31
2022/08/01 05:52:34;;;;;;;3.70;2.20;;;;;;;33.63;59.37;100393.47;4955683;28;66552;-31
2022/08/01 05:55:06;;;;;;;2.38;2.17;;;;;;;33.67;59.42;100397.31;4980962;28;70574;-32
2022/08/01 05:57:38;;;;;;;3.25;2.58;;;;;;;33.72;59.32;100402.03;4950404;28;66279;-30
2022/08/01 06:00:11;;;;;;;2.70;2.33;;;;;;;33.72;59.15;100405.56;4953266;28;69527;-31
2022/08/01 06:02:43;;;;;;;3.22;2.22;;;;;;;33.62;59.22;100372.78;5019806;28;66728;-31
2022/08/01 06:05:15;;;;;;;3.00;2.63;;;;;;;33.63;59.15;100374.44;4956209;28;70175;-30
2022/08/01 06:07:47;;;;;;;4.15;2.22;;;;;;;33.74;59.21;100391.69;4958573;28;66419;-30
2022/08/01 06:10:18;;;;;;;2.90;2.40;;;;;;;33.72;59.51;100375.66;4960585;28;70465;-30
2022/08/01 06:12:50;;;;;;;3.30;2.47;;;;;;;33.75;59.28;100386.00;4954647;28;65333;-32
2022/08/01 06:15:21;;;;;;;2.17;1.98;;;;;;;33.72;59.26;100375.66;4950402;28;69119;-31
2022/08/01 06:17:53;;;;;;;10.70;2.35;;;;;;;33.75;59.22;100380.56;4953281;28;65140;-31
2022/08/01 06:20:24;;;;;;;3.67;2.40;;;;;;;33.81;59.61;100386.91;4955513;28;69454;-31
2022/08/01 06:22:56;;;;;;;3.97;2.55;;;;;;;33.83;59.32;100408.44;4957862;28;65931;-31
2022/08/01 06:25:29;;;;;;;2.50;2.30;;;;;;;33.79;59.59;100417.09;4950628;28;70077;-32
2022/08/01 06:28:01;;;;;;;7.30;2.30;;;;;;;33.82;59.41;100481.03;4955370;28;66355;-31
2022/08/01 06:30:33;;;;;;;4.38;2.45;;;;;;;33.82;59.52;100467.44;4953706;28;70037;-31
2022/08/01 06:33:04;;;;;;;7.18;2.55;;;;;;;33.79;59.89;100476.09;4963420;28;66157;-30
2022/08/01 06:35:36;;;;;;;7.25;2.38;;;;;;;33.77;60.47;100443.72;4963408;28;70338;-31
2022/08/01 06:38:07;;;;;;;8.23;2.20;;;;;;;33.76;60.50;100436.63;4971134;28;65977;-31
2022/08/01 06:40:39;;;;;;;4.78;2.40;;;;;;;33.73;60.31;100483.38;5018958;28;69527;-31
2022/08/01 06:43:11;;;;;;;5.55;2.20;;;;;;;33.73;60.62;100490.72;4961251;28;65414;-30
2022/08/01 06:45:42;;;;;;;10.38;2.50;;;;;;;33.73;60.10;100453.44;4955559;28;69383;-31
2022/08/01 06:48:14;;;;;;;2.35;1.80;;;;;;;33.68;60.50;100456.09;4957927;28;66084;-31
2022/08/01 06:50:45;;;;;;;;;;;;;;;33.37;61.23;100471.91;4958237;28;69325;-30
2022/08/01 06:53:16;;;;;;;3.47;2.20;;;;;;;32.68;60.36;100308.25;4949363;28;66362;-31
2022/08/01 06:55:48;;;;;;;4.28;2.03;;;;;;;33.64;60.62;100441.34;4955125;28;70131;-33
2022/08/01 06:58:19;;;;;;;2.47;1.65;;;;;;;33.64;60.35;100418.78;4956100;28;66115;-31
2022/08/01 07:00:59;;;;;;;7.07;2.00;;;;;;;33.64;60.26;100402.47;4954315;28;69212;-30
2022/08/01 07:03:32;;;;;;;3.40;1.92;;;;;;;33.51;60.50;100387.28;4957898;28;66249;-31
2022/08/01 07:06:25;;;;;;;5.72;1.85;;;;;;;33.53;60.18;100371.56;4949647;28;69667;-32
2022/08/01 07:08:57;;;;;;;6.03;2.03;;;;;;;33.55;60.21;100364.00;4957241;28;66632;-32
2022/08/01 07:11:37;;;;;;;4.60;2.22;;;;;;;33.51;60.48;100358.19;4953559;28;69542;-31
2022/08/01 07:14:08;;;;;;;6.18;2.03;;;;;;;33.47;60.52;100367.94;4956022;28;66171;-30
2022/08/01 07:16:39;;;;;;;3.92;1.83;;;;;;;33.43;60.78;100365.94;4954378;28;70060;-31
2022/08/01 07:19:12;;;;;;;;;;;;;;;33.10;61.64;100356.78;4955804;28;66153;-33
2022/08/01 07:21:44;;;;;;;4.25;2.35;;;;;;;33.36;61.33;100347.91;4955431;28;70490;-31
2022/08/01 07:24:18;;;;;;;4.28;1.90;;;;;;;33.36;60.86;100347.91;4955053;28;66843;-31
2022/08/01 07:26:53;;;;;;;3.63;2.20;;;;;;;33.35;60.95;100343.56;4955429;28;70630;-30
2022/08/01 07:29:26;;;;;;;7.20;2.53;;;;;;;33.33;61.08;100345.72;4953352;28;66328;-31
2022/08/01 07:31:58;;;;;;;7.15;2.35;;;;;;;32.44;61.07;100213.34;4956892;28;70459;-31
2022/08/01 07:34:30;;;;;;;2.90;2.03;;;;;;;33.25;61.13;100343.41;4955592;28;66580;-31
2022/08/01 07:37:02;;;;;;;3.08;2.03;;;;;;;33.20;61.22;100359.63;4951290;28;69321;-31
2022/08/01 07:39:34;;;;;;;3.47;2.35;;;;;;;33.21;61.03;100364.03;4956886;28;66170;-30
2022/08/01 07:42:05;;;;;;;7.13;2.17;;;;;;;33.19;61.53;100377.03;4950541;28;70032;-31
2022/08/01 07:44:38;;;;;;;5.43;2.65;;;;;;;33.16;61.57;100388.41;4951963;28;66755;-30
2022/08/01 07:47:09;;;;;;;;;;;;;;;32.82;62.59;100393.78;4950945;28;70356;-29
2022/08/01 07:49:40;;;;;;;4.07;2.10;;;;;;;33.05;61.53;100397.47;4963424;28;65144;-29
2022/08/01 07:52:12;;;;;;;4.07;2.47;;;;;;;33.08;61.58;100402.41;4955407;28;69382;-31
2022/08/01 07:54:43;;;;;;;;;;;;;;;32.75;62.96;100403.16;4956657;28;65334;-31
2022/08/01 07:57:21;;;;;;;3.92;2.08;;;;;;;32.58;61.91;100321.66;5033224;28;69942;-31
2022/08/01 07:59:52;;;;;;;5.03;2.30;;;;;;;32.97;62.49;100376.09;4951726;28;66461;-31
2022/08/01 08:02:24;;;;;;;6.57;2.28;;;;;;;33.01;61.88;100385.41;4956455;28;69299;-29
2022/08/01 08:04:55;;;;;;;3.25;2.33;;;;;;;33.03;62.09;100383.28;5021787;28;65463;-30
2022/08/01 08:07:26;;;;;;;4.13;2.20;;;;;;;33.00;62.23;100367.47;4951415;28;70037;-30
2022/08/01 08:09:58;;;;;;;5.18;2.03;;;;;;;32.99;62.12;100350.34;4947034;28;66056;-31
2022/08/01 08:12:29;;;;;;;;;;;;;;;32.65;63.72;100333.19;4953831;28;70441;-30
2022/08/01 08:15:01;;;;;;;4.70;2.13;;;;;;;32.97;62.26;100324.47;4953462;28;65958;-30
2022/08/01 08:17:35;;;;;;;2.17;1.77;;;;;;;32.94;62.07;100315.75;4951795;28;70644;-32
2022/08/01 08:20:08;;;;;;;3.38;2.17;;;;;;;32.17;62.32;100186.03;4954890;28;66464;-30
2022/08/01 08:22:40;;;;;;;4.55;2.35;;;;;;;32.96;62.58;100310.06;4948407;28;69443;-30
2022/08/01 08:25:11;;;;;;;2.50;2.28;;;;;;;32.82;62.89;100284.28;4956522;28;66438;-32
2022/08/01 08:27:43;;;;;;;4.82;2.80;;;;;;;32.91;62.63;100302.66;4952989;28;69735;-31
2022/08/01 08:30:16;;;;;;;9.95;2.92;;;;;;;32.92;62.75;100304.28;4951438;28;66383;-30
2022/08/01 08:32:50;;;;;;;7.18;2.83;;;;;;;32.91;62.87;100305.38;4952771;28;70181;-30
2022/08/01 08:35:23;;;;;;;5.35;2.88;;;;;;;32.91;62.81;100302.66;4954365;28;67314;-31
2022/08/01 08:38:14;;;;;;;13.25;2.58;;;;;;;32.87;63.22;100293.34;4946757;28;69532;-32
2022/08/01 08:40:46;;;;;;;;;;;;;;;32.54;64.30;100298.78;4957136;28;66435;-31
2022/08/01 08:43:18;;;;;;;4.18;2.20;;;;;;;32.85;62.71;100306.38;4951151;28;70753;-31
2022/08/01 08:45:49;;;;;;;3.67;2.17;;;;;;;32.85;62.89;100306.38;4953648;28;65666;-30
2022/08/01 08:48:29;;;;;;;4.55;2.53;;;;;;;32.74;62.66;100287.44;4953282;28;69915;-30
2022/08/01 08:51:02;;;;;;;3.03;2.53;;;;;;;32.85;62.69;100303.66;4954310;28;65608;-30
2022/08/01 08:53:34;;;;;;;4.85;2.55;;;;;;;32.74;62.88;100288.28;4949427;28;70415;-30
2022/08/01 08:56:08;;;;;;;6.18;2.50;;;;;;;32.87;62.82;100303.38;4955622;28;66523;-31
2022/08/01 08:58:44;;;;;;;2.35;1.77;;;;;;;32.87;62.34;100309.63;4959847;28;70000;-30
2022/08/01 09:01:17;;;;;;;6.28;2.78;;;;;;;32.69;62.52;100280.84;4957687;28;65978;-31
2022/08/01 09:03:52;;;;;;;3.15;2.83;;;;;;;32.87;62.45;100315.06;4955368;28;70613;-30
2022/08/01 09:06:23;;;;;;;4.00;2.53;;;;;;;32.84;62.35;100323.72;4951320;28;65336;-31
2022/08/01 09:08:57;;;;;;;4.13;2.25;;;;;;;32.81;62.49;100307.91;4949211;28;70074;-31
2022/08/01 09:11:28;;;;;;;3.35;2.97;;;;;;;32.85;62.32;100317.25;4955948;28;65690;-31
2022/08/01 09:14:14;;;;;;;4.75;1.95;;;;;;;32.85;62.33;100319.97;4955454;28;70396;-31
2022/08/01 09:16:46;;;;;;;3.03;2.50;;;;;;;32.72;62.48;100301.25;4956521;28;66213;-30
2022/08/01 09:19:20;;;;;;;4.20;2.90;;;;;;;32.02;62.32;100194.75;4952580;28;70002;-30
2022/08/01 09:22:13;;;;;;;3.58;2.50;;;;;;;32.35;62.36;100250.13;5018331;28;65607;-30
2022/08/01 09:25:03;;;;;;;5.78;2.30;;;;;;;32.75;62.57;100341.50;4952063;28;69977;-31
2022/08/01 09:27:39;;;;;;;4.25;2.63;;;;;;;32.83;62.28;100345.72;4951205;28;67002;-30
2022/08/01 09:30:17;;;;;;;4.70;2.53;;;;;;;32.40;62.26;100293.66;4953530;28;70083;-32
2022/08/01 09:33:00;;;;;;;6.22;2.75;;;;;;;32.81;62.63;100359.53;5020868;28;65112;-30
2022/08/01 09:35:57;;;;;;;2.80;2.40;;;;;;;32.26;62.55;100285.00;4955139;28;69911;-31
2022/08/01 09:38:28;;;;;;;2.95;2.65;;;;;;;32.81;62.44;100373.09;4953471;28;66416;-31
2022/08/01 09:41:01;;;;;;;3.08;2.55;;;;;;;32.80;62.27;100385.06;4955237;28;70522;-31
2022/08/01 09:43:34;;;;;;;3.30;3.00;;;;;;;32.80;62.47;100382.34;4955195;28;66400;-31
2022/08/01 09:46:14;;;;;;;5.72;2.65;;;;;;;32.33;62.41;100303.81;4951068;28;70465;-30
2022/08/01 09:49:03;;;;;;;5.07;2.80;;;;;;;32.19;62.74;100307.91;4955000;28;66495;-31
2022/08/01 09:51:41;;;;;;;2.50;2.25;;;;;;;32.34;62.54;100316.31;4955199;28;70544;-30
2022/08/01 09:54:32;;;;;;;5.05;2.80;;;;;;;32.40;62.55;100325.38;5019244;28;66808;-30
2022/08/01 09:57:16;;;;;;;3.90;2.58;;;;;;;32.61;62.91;100370.06;4959558;28;69376;-31
2022/08/01 09:59:50;;;;;;;2.90;2.70;;;;;;;32.30;62.60;100312.47;4949797;28;66750;-31
2022/08/01 10:02:41;;;;;;;5.72;2.88;;;;;;;32.75;62.99;100386.88;4955850;28;70299;-31
2022/08/01 10:05:13;;;;;;;3.47;2.63;;;;;;;32.74;62.53;100386.03;5015076;28;66287;-32
2022/08/01 10:07:58;;;;;;;3.03;2.72;;;;;;;32.54;62.67;100350.34;4957506;28;69949;-32
2022/08/01 10:10:31;;;;;;;3.35;2.90;;;;;;;32.74;62.51;100380.59;4949786;28;66048;-30
2022/08/01 10:13:08;;;;;;;3.10;2.83;;;;;;;32.75;62.77;100387.69;4951124;28;70655;-31
2022/08/01 10:15:40;;;;;;;3.10;2.90;;;;;;;32.74;62.84;100391.47;4956041;28;65906;-31
2022/08/01 10:18:12;;;;;;;6.72;4.60;;;;;;;32.47;65.18;100381.22;4958152;28;69587;-31
2022/08/01 10:20:55;;;;;;;7.75;5.53;;;;;;;32.40;67.59;100396.81;4955129;28;65705;-30
2022/08/01 10:23:35;;;;;;;6.97;6.38;;;;;;;31.78;68.62;100334.19;5016374;28;71133;-29
2022/08/01 10:26:12;;;;;;;11.32;6.72;;;;;;;31.73;69.25;100331.38;5035745;28;66682;-30
2022/08/01 10:28:48;;;;;;;9.02;7.07;;;;;;;31.72;69.55;100340.59;4952626;28;70445;-30
2022/08/01 10:31:20;;;;;;;13.23;8.05;;;;;;;32.09;70.55;100419.78;4953893;28;65541;-31
2022/08/01 10:34:01;;;;;;;10.07;7.43;;;;;;;31.59;70.44;100341.66;4951985;28;70261;-31
2022/08/01 10:36:35;;;;;;;7.60;6.85;;;;;;;32.04;70.70;100420.50;4953015;28;65717;-32
2022/08/01 10:39:13;;;;;;;8.25;7.22;;;;;;;31.95;70.86;100405.66;4953176;28;69950;-32
2022/08/01 10:41:49;;;;;;;24.33;7.68;;;;;;;31.99;70.90;100414.97;4953123;28;66326;-34
2022/08/01 10:44:24;;;;;;;10.80;7.60;;;;;;;31.99;71.27;100428.53;4954773;28;70270;-31
2022/08/01 10:47:06;;;;;;;11.82;7.38;;;;;;;31.99;71.14;100420.41;4957583;28;66833;-31
2022/08/01 10:49:56;;;;;;;8.32;7.40;;;;;;;31.96;72.06;100434.44;4954766;28;70230;-31
2022/08/01 10:52:28;;;;;;;11.10;8.25;;;;;;;31.99;72.11;100438.56;4949253;28;66387;-32
2022/08/01 10:55:06;;;;;;;11.02;7.53;;;;;;;31.97;72.05;100444.22;4961720;28;71090;-33
2022/08/01 10:57:45;;;;;;;8.90;7.78;;;;;;;31.97;72.14;100446.09;4944233;28;65671;-31
2022/08/01 11:00:22;;;;;;;12.23;7.95;;;;;;;31.86;72.53;100431.47;4956820;28;69866;-31
2022/08/01 11:03:03;;;;;;;10.57;8.27;;;;;;;31.53;73.02;100385.97;4955237;28;64760;-32
2022/08/01 11:05:36;;;;;;;8.88;7.45;;;;;;;31.94;73.60;100455.53;4950718;28;69945;-35
2022/08/01 11:08:13;;;;;;;;;;;;;;;31.66;74.23;100450.81;4952149;28;65326;-34
2022/08/01 11:10:44;;;;;;;8.57;7.78;;;;;;;31.94;73.19;100457.44;5036626;28;70420;-33
2022/08/01 11:13:54;;;;;;;7.95;7.25;;;;;;;31.88;73.49;100458.38;4954444;28;66111;-32
2022/08/01 11:16:33;;;;;;;8.38;7.70;;;;;;;31.44;72.99;100393.66;4955336;28;70032;-33
2022/08/01 11:19:06;;;;;;;9.95;6.40;;;;;;;32.09;71.80;100471.31;4954450;28;65567;-31
2022/08/01 11:21:56;;;;;;;7.32;6.72;;;;;;;32.09;71.86;100470.50;5036937;28;69474;-34
2022/08/01 11:24:50;;;;;;;9.65;6.80;;;;;;;32.17;71.68;100481.00;4952700;28;66274;-31
2022/08/01 11:27:27;;;;;;;8.10;7.30;;;;;;;32.30;70.48;100488.88;4954754;28;69655;-33
2022/08/01 11:30:11;;;;;;;7.95;7.32;;;;;;;32.36;70.18;100487.91;4960508;28;65766;-32
2022/08/01 11:32:48;;;;;;;10.82;8.60;;;;;;;32.40;70.07;100491.81;4955538;28;70166;-33
2022/08/01 11:36:11;;;;;;;9.63;8.82;;;;;;;32.35;70.04;100502.56;5009525;28;67072;-34
2022/08/01 11:39:08;;;;;;;11.15;10.23;;;;;;;31.94;69.46;100411.31;4951937;28;70049;-34
2022/08/01 11:41:44;;;;;;;11.75;10.65;;;;;;;32.51;69.80;100501.00;4954548;28;66216;-32
2022/08/01 11:44:20;;;;;;;13.30;10.60;;;;;;;32.48;69.64;100487.91;5016502;28;70510;-33
2022/08/01 11:47:09;;;;;;;14.15;10.80;;;;;;;32.18;69.96;100463.63;4962856;28;65693;-32
2022/08/01 11:49:49;;;;;;;13.15;11.27;;;;;;;32.60;69.45;100515.03;4952460;28;69906;-32
2022/08/01 11:52:29;;;;;;;13.45;10.55;;;;;;;32.10;69.58;100434.19;4952553;28;66053;-34
2022/08/01 11:55:09;;;;;;;12.57;10.50;;;;;;;32.60;69.40;100525.91;4952219;28;70305;-35
2022/08/01 11:57:45;;;;;;;12.68;11.35;;;;;;;32.57;69.06;100504.63;4954785;28;66703;-34
2022/08/01 12:00:17;;;;;;;;;;;;;;;32.32;70.62;100516.63;4953805;28;70080;-34
2022/08/01 12:03:02;;;;;;;11.45;10.48;;;;;;;32.58;69.83;100518.00;4951205;28;66620;-32
2022/08/01 12:05:36;;;;;;;12.65;10.73;;;;;;;32.66;69.20;100530.38;4953182;28;68652;-34
2022/08/01 12:08:12;;;;;;;13.13;11.70;;;;;;;32.66;69.21;100524.94;4947999;28;66084;-32
2022/08/01 12:10:50;;;;;;;13.93;12.23;;;;;;;32.60;69.28;100528.63;4950923;28;70206;-33